createdAt,value
2022-11-02T00:00:52.296Z,12.24
2022-11-02T00:05:14.434Z,12.21
2022-11-02T00:09:23.381Z,12.15
2022-11-02T00:13:31.653Z,12.09
2022-11-02T00:17:40.062Z,12.04
2022-11-02T00:21:48.125Z,12.01
2022-11-02T00:25:57.919Z,11.94
2022-11-02T00:30:09.540Z,11.87
2022-11-02T00:34:18.459Z,11.83
2022-11-02T00:38:26.637Z,11.80
2022-11-02T00:42:35.298Z,11.78
2022-11-02T00:46:43.472Z,11.73
2022-11-02T00:50:51.414Z,11.67
2022-11-02T00:54:59.937Z,11.63
2022-11-02T00:59:09.106Z,11.61
2022-11-02T01:03:19.045Z,11.59
2022-11-02T01:07:27.272Z,11.59
2022-11-02T01:11:36.711Z,11.58
2022-11-02T01:15:44.536Z,11.57
2022-11-02T01:19:53.499Z,11.59
2022-11-02T01:24:01.485Z,11.62
2022-11-02T01:28:09.411Z,11.66
2022-11-02T01:32:18.604Z,11.69
2022-11-02T01:36:27.210Z,11.70
2022-11-02T01:40:40.796Z,11.67
2022-11-02T01:44:52.020Z,11.68
2022-11-02T01:49:04.064Z,11.70
2022-11-02T01:53:12.429Z,11.69
2022-11-02T01:57:23.102Z,11.66
2022-11-02T02:01:32.497Z,11.63
2022-11-02T02:05:44.736Z,11.63
2022-11-02T02:09:53.641Z,11.63
2022-11-02T02:14:04.164Z,11.66
2022-11-02T02:18:21.268Z,11.66
2022-11-02T02:22:52.719Z,11.63
2022-11-02T02:27:15.528Z,11.61
2022-11-02T02:31:29.811Z,11.59
2022-11-02T02:35:43.990Z,11.61
2022-11-02T02:39:56.376Z,11.64
2022-11-02T02:44:05.593Z,11.64
2022-11-02T02:48:17.171Z,11.61
2022-11-02T02:52:27.315Z,11.55
2022-11-02T02:56:40.516Z,11.52
2022-11-02T03:00:48.759Z,11.51
2022-11-02T03:04:57.275Z,11.50
2022-11-02T03:09:15.605Z,11.49
2022-11-02T03:13:43.619Z,11.46
2022-11-02T03:18:00.490Z,11.42
2022-11-02T03:22:14.064Z,11.38
2022-11-02T03:26:27.363Z,11.36
2022-11-02T03:30:40.512Z,11.33
2022-11-02T03:34:50.956Z,11.28
2022-11-02T03:39:02.959Z,11.21
2022-11-02T03:43:11.084Z,11.17
2022-11-02T03:47:20.135Z,11.16
2022-11-02T03:51:29.046Z,11.17
2022-11-02T03:55:41.452Z,11.17
2022-11-02T03:59:49.175Z,11.15
2022-11-02T04:03:56.944Z,11.10
2022-11-02T04:08:24.815Z,11.08
2022-11-02T04:12:49.779Z,11.08
2022-11-02T04:17:11.401Z,11.09
2022-11-02T04:21:19.864Z,11.08
2022-11-02T04:25:27.887Z,11.05
2022-11-02T04:29:36.195Z,10.99
2022-11-02T04:33:44.209Z,10.93
2022-11-02T04:38:09.877Z,10.88
2022-11-02T04:42:17.936Z,10.81
2022-11-02T04:46:27.744Z,10.75
2022-11-02T04:50:36.820Z,10.68
2022-11-02T04:54:44.683Z,10.65
2022-11-02T04:58:54.533Z,10.62
2022-11-02T05:03:03.916Z,10.60
2022-11-02T05:07:14.254Z,10.58
2022-11-02T05:11:23.136Z,10.53
2022-11-02T05:15:30.688Z,10.46
2022-11-02T05:19:38.560Z,10.42
2022-11-02T05:23:46.822Z,10.40
2022-11-02T05:27:54.779Z,10.38
2022-11-02T05:32:02.699Z,10.32
2022-11-02T05:36:13.168Z,10.25
2022-11-02T05:40:21.436Z,10.21
2022-11-02T05:44:29.554Z,10.19
2022-11-02T05:48:37.635Z,10.17
2022-11-02T05:52:46.188Z,10.15
2022-11-02T05:56:55.580Z,10.12
2022-11-02T06:01:05.254Z,10.07
2022-11-02T06:05:13.798Z,10.02
2022-11-02T06:09:21.594Z,10.04
2022-11-02T06:13:29.188Z,10.06
2022-11-02T06:17:42.297Z,10.10
2022-11-02T06:21:50.396Z,10.12
2022-11-02T06:26:00.023Z,10.11
2022-11-02T06:30:10.131Z,10.13
2022-11-02T06:34:22.376Z,10.17
2022-11-02T06:38:31.761Z,10.20
2022-11-02T06:42:45.442Z,10.22
2022-11-02T06:47:05.797Z,10.24
2022-11-02T06:51:13.544Z,10.27
2022-11-02T06:55:24.815Z,10.35
2022-11-02T06:59:35.350Z,10.41
2022-11-02T07:03:47.013Z,10.45
2022-11-02T07:08:04.039Z,10.47
2022-11-02T07:12:13.691Z,10.52
2022-11-02T07:16:23.853Z,10.59
2022-11-02T07:20:35.489Z,10.63
2022-11-02T07:24:43.450Z,10.64
2022-11-02T07:28:55.227Z,10.63
2022-11-02T07:33:09.277Z,10.66
2022-11-02T07:37:16.823Z,10.71
2022-11-02T07:41:25.151Z,10.73
2022-11-02T07:45:35.099Z,10.76
2022-11-02T07:49:44.689Z,10.77
2022-11-02T07:53:53.846Z,10.84
2022-11-02T07:58:11.443Z,10.92
2022-11-02T08:02:21.139Z,11.01
2022-11-02T08:06:29.097Z,11.07
2022-11-02T08:10:40.424Z,11.13
2022-11-02T08:14:49.107Z,11.22
2022-11-02T08:18:59.895Z,11.32
2022-11-02T08:23:11.069Z,11.41
2022-11-02T08:27:20.781Z,11.49
2022-11-02T08:31:31.250Z,11.57
2022-11-02T08:35:43.389Z,11.68
2022-11-02T08:39:51.608Z,11.81
2022-11-02T08:44:02.068Z,11.92
2022-11-02T08:48:12.613Z,12.03
2022-11-02T08:52:25.486Z,12.12
2022-11-02T08:56:33.386Z,12.21
2022-11-02T09:00:44.110Z,12.28
2022-11-02T09:04:58.158Z,12.35
2022-11-02T09:09:13.309Z,12.44
2022-11-02T09:13:26.299Z,12.54
2022-11-02T09:17:45.177Z,12.67
2022-11-02T09:21:53.541Z,12.78
2022-11-02T09:26:03.554Z,12.87
2022-11-02T09:30:12.283Z,12.94
2022-11-02T09:34:20.472Z,13.00
2022-11-02T09:38:29.411Z,13.06
2022-11-02T09:42:42.419Z,13.12
2022-11-02T09:47:17.740Z,13.20
2022-11-02T09:51:22.691Z,13.33
2022-11-02T09:55:36.166Z,13.43
2022-11-02T09:59:46.615Z,13.50
2022-11-02T10:04:18.457Z,13.59
2022-11-02T10:08:40.358Z,13.72
2022-11-02T10:12:55.128Z,13.82
2022-11-02T10:17:11.483Z,13.92
2022-11-02T10:21:23.239Z,14.02
2022-11-02T10:25:37.200Z,14.11
2022-11-02T10:29:50.504Z,14.17
2022-11-02T10:34:01.267Z,14.23
2022-11-02T10:38:20.988Z,14.30
2022-11-02T10:43:07.724Z,14.38
2022-11-02T10:47:23.383Z,14.44
2022-11-02T10:51:41.383Z,14.52
2022-11-02T10:55:56.932Z,14.58
2022-11-02T11:00:25.690Z,14.63
2022-11-02T11:04:34.483Z,14.69
2022-11-02T11:08:44.571Z,14.74
2022-11-02T11:12:58.350Z,14.80
2022-11-02T11:21:46.549Z,14.94
2022-11-02T11:26:05.047Z,15.03
2022-11-02T11:35:04.210Z,15.20
2022-11-02T11:39:29.900Z,15.28
2022-11-02T11:43:40.987Z,15.36
2022-11-02T11:47:48.934Z,15.44
2022-11-02T11:52:05.784Z,15.55
2022-11-02T11:56:29.107Z,15.66
2022-11-02T12:00:37.102Z,15.76
2022-11-02T12:04:44.930Z,15.84
2022-11-02T12:09:03.944Z,15.93
2022-11-02T12:13:31.077Z,16.02
2022-11-02T12:18:04.573Z,16.08
2022-11-02T12:22:21.579Z,16.17
2022-11-02T12:26:37.026Z,16.30
2022-11-02T12:30:53.849Z,16.37
2022-11-02T12:35:29.764Z,16.41
2022-11-02T12:39:48.755Z,16.45
2022-11-02T12:43:59.714Z,16.51
2022-11-02T12:48:11.017Z,16.57
2022-11-02T12:52:32.475Z,16.56
2022-11-02T12:56:54.016Z,16.46
2022-11-02T13:01:07.058Z,16.41
2022-11-02T13:05:30.283Z,16.44
2022-11-02T13:09:40.221Z,16.45
2022-11-02T13:13:52.381Z,16.37
2022-11-02T13:18:03.314Z,16.22
2022-11-02T13:22:20.156Z,16.10
2022-11-02T13:26:39.756Z,15.99
2022-11-02T13:30:49.684Z,15.88
2022-11-02T13:34:57.745Z,15.78
2022-11-02T13:39:15.512Z,15.72
2022-11-02T13:44:06.223Z,15.72
2022-11-02T13:48:42.594Z,15.65
2022-11-02T13:52:56.407Z,15.59
2022-11-02T13:57:07.607Z,15.56
2022-11-02T14:01:23.525Z,15.57
2022-11-02T14:05:33.458Z,15.61
2022-11-02T14:09:42.972Z,15.71
2022-11-02T14:14:23.286Z,15.87
2022-11-02T14:18:33.463Z,15.92
2022-11-02T14:22:41.261Z,15.87
2022-11-02T14:27:00.586Z,15.77
2022-11-02T14:31:33.422Z,15.66
2022-11-02T14:35:44.922Z,15.54
2022-11-02T14:40:03.018Z,15.41
2022-11-02T14:44:36.121Z,15.27
2022-11-02T14:48:51.428Z,15.14
2022-11-02T14:53:06.124Z,15.02
2022-11-02T14:57:32.826Z,14.90
2022-11-02T15:01:55.483Z,14.80
2022-11-02T15:06:05.863Z,14.72
2022-11-02T15:10:53.618Z,14.65
2022-11-02T15:15:27.293Z,14.53
2022-11-02T15:19:47.273Z,14.41
2022-11-02T15:24:18.135Z,14.34
2022-11-02T15:28:34.972Z,14.30
2022-11-02T15:33:02.283Z,14.26
2022-11-02T15:37:13.241Z,14.22
2022-11-02T15:41:29.957Z,14.18
2022-11-02T15:46:00.369Z,14.11
2022-11-02T15:50:35.213Z,14.07
2022-11-02T15:54:51.545Z,14.03
2022-11-02T15:59:22.547Z,13.98
2022-11-02T16:03:32.960Z,13.99
2022-11-02T16:08:05.211Z,14.03
2022-11-02T16:12:19.981Z,14.05
2022-11-02T16:16:35.551Z,14.07
2022-11-02T16:20:54.252Z,14.04
2022-11-02T16:25:10.872Z,13.99
2022-11-02T16:29:34.154Z,13.90
2022-11-02T16:33:49.163Z,13.81
2022-11-02T16:37:58.766Z,13.72
2022-11-02T16:42:14.026Z,13.60
2022-11-02T16:46:32.314Z,13.48
2022-11-02T16:51:04.004Z,13.38
2022-11-02T16:55:39.248Z,13.26
2022-11-02T16:59:56.681Z,13.22
2022-11-02T17:04:09.103Z,13.21
2022-11-02T17:08:31.319Z,13.17
2022-11-02T17:12:41.129Z,13.13
2022-11-02T17:17:05.196Z,13.09
2022-11-02T17:21:32.847Z,13.03
2022-11-02T17:25:41.783Z,12.94
2022-11-02T17:29:49.871Z,12.86
2022-11-02T17:33:57.611Z,12.77
2022-11-02T17:38:06.258Z,12.67
2022-11-02T17:42:35.165Z,12.58
2022-11-02T17:46:45.732Z,12.49
2022-11-02T17:50:55.956Z,12.45
2022-11-02T17:55:03.763Z,12.42
2022-11-02T17:59:11.686Z,12.40
2022-11-02T18:03:24.262Z,12.37
2022-11-02T18:07:34.817Z,12.34
2022-11-02T18:11:43.180Z,12.31
2022-11-02T18:15:51.287Z,12.26
2022-11-02T18:19:59.375Z,12.20
2022-11-02T18:24:08.078Z,12.16
2022-11-02T18:28:15.439Z,12.15
2022-11-02T18:32:24.311Z,12.17
2022-11-02T18:36:33.072Z,12.22
2022-11-02T18:40:40.671Z,12.22
2022-11-02T18:44:48.333Z,12.20
2022-11-02T18:48:55.974Z,12.17
2022-11-02T18:53:03.699Z,12.12
2022-11-02T18:57:11.094Z,12.04
2022-11-02T19:01:20.134Z,11.97
2022-11-02T19:05:45.692Z,11.92
2022-11-02T19:09:53.585Z,11.87
2022-11-02T19:14:01.148Z,11.84
2022-11-02T19:18:08.999Z,11.84
2022-11-02T19:22:17.229Z,11.85
2022-11-02T19:30:33.549Z,11.81
2022-11-02T19:34:41.987Z,11.75
2022-11-02T19:38:49.954Z,11.68
2022-11-02T19:42:57.286Z,11.61
2022-11-02T19:47:07.574Z,11.53
2022-11-02T19:51:19.262Z,11.44
2022-11-02T19:55:29.654Z,11.39
2022-11-02T19:59:37.775Z,11.36
2022-11-02T20:03:47.839Z,11.34
2022-11-02T20:07:56.248Z,11.29
2022-11-02T20:12:06.010Z,11.22
2022-11-02T20:16:15.014Z,11.15
2022-11-02T20:20:22.717Z,11.07
2022-11-02T20:24:30.542Z,11.00
2022-11-02T20:28:39.813Z,10.92
2022-11-02T20:32:47.401Z,10.89
2022-11-02T20:36:55.661Z,10.85
2022-11-02T20:41:12.657Z,10.81
2022-11-02T20:45:23.723Z,10.75
2022-11-02T20:49:49.836Z,10.64
2022-11-02T20:53:59.302Z,10.53
2022-11-02T20:58:07.273Z,10.45
2022-11-02T21:02:15.678Z,10.38
2022-11-02T21:06:25.049Z,10.32
2022-11-02T21:10:32.863Z,10.30
2022-11-02T21:14:40.496Z,10.27
2022-11-02T21:18:48.264Z,10.23
2022-11-02T21:22:58.006Z,10.18
2022-11-02T21:27:07.251Z,10.11
2022-11-02T21:31:17.356Z,10.03
2022-11-02T21:35:24.733Z,9.93
2022-11-02T21:39:32.563Z,9.87
2022-11-02T21:43:41.614Z,9.83
2022-11-02T21:47:52.680Z,9.79
2022-11-02T21:52:00.401Z,9.74
2022-11-02T21:56:10.073Z,9.66
2022-11-02T22:00:19.434Z,9.59
2022-11-02T22:04:31.346Z,9.52
2022-11-02T22:08:41.881Z,9.49
2022-11-02T22:13:07.017Z,9.51
2022-11-02T22:17:35.408Z,9.53
2022-11-02T22:21:46.724Z,9.52
2022-11-02T22:26:02.921Z,9.49
2022-11-02T22:30:12.511Z,9.43
2022-11-02T22:34:20.147Z,9.35
2022-11-02T22:38:45.364Z,9.30
2022-11-02T22:42:57.488Z,9.28
2022-11-02T22:47:05.024Z,9.29
2022-11-02T22:51:14.206Z,9.28
2022-11-02T22:55:21.723Z,9.26
2022-11-02T22:59:29.372Z,9.22
2022-11-02T23:03:37.204Z,9.18
2022-11-02T23:07:44.740Z,9.18
2022-11-02T23:11:52.491Z,9.18
2022-11-02T23:16:22.839Z,9.17
2022-11-02T23:20:30.971Z,9.13
2022-11-02T23:24:56.726Z,9.08
2022-11-02T23:29:21.920Z,9.01
2022-11-02T23:33:32.059Z,8.96
2022-11-02T23:37:40.549Z,8.93
2022-11-02T23:41:48.564Z,8.89
2022-11-02T23:45:56.447Z,8.85
2022-11-02T23:50:03.846Z,8.78
2022-11-02T23:54:30.019Z,8.69
2022-11-02T23:58:37.635Z,8.60
